Time;durP1;ratioP1;P1;durP2;ratioP2;P2;SDS_P1;SDS_P2;PMS_P1;PMS_P2;Temp;Humidity;BMP_temperature;BMP_pressure;BME280_temperature;BME280_humidity;BME280_pressure;Samples;Min_cycle;Max_cycle;Signal;HPM_P1;HPM_P2
2022/09/23 00:01:49;;;;;;;;;;;;;;;5.70;100.00;95976.13;10442247;28;2477;-70
2022/09/23 00:06:53;;;;;;;;;;;;;;;5.65;100.00;95969.88;10438157;28;2436;-70
2022/09/23 00:11:56;;;;;;;;;;;;;;;5.59;100.00;95971.63;10442239;28;2470;-69
2022/09/23 00:16:59;;;;;;;;;;;;;;;5.47;100.00;95967.38;10442612;28;2501;-71
2022/09/23 00:22:02;;;;;;;;;;;6.70;99.90;;;5.47;100.00;95962.91;10446987;28;2469;-70
2022/09/23 00:27:05;;;;;;;;;;;;;;;5.42;100.00;95960.94;10442217;28;2541;-71
2022/09/23 00:32:09;;;;;;;;;;;;;;;5.34;100.00;95955.13;10441230;28;2502;-71
2022/09/23 00:37:13;;;;;;;;;;;;;;;5.24;100.00;95955.75;10440592;28;2481;-71
2022/09/23 00:42:17;;;;;;;;;;;;;;;5.11;100.00;95958.69;10442972;28;2439;-69
2022/09/23 00:47:30;;;;;;;;;;;;;;;5.05;100.00;95962.28;10448680;28;2614;-70
2022/09/23 00:52:33;;;;;;;;;;;;;;;5.05;100.00;95949.78;10450131;28;2485;-70
2022/09/23 00:57:37;;;;;;;;;;;;;;;4.93;100.00;95954.31;10448656;28;2553;-69
2022/09/23 01:02:40;;;;;;;;;;;;;;;4.83;100.00;95946.88;10451985;28;2586;-70
2022/09/23 01:07:43;;;;;;;;;;;;;;;4.91;100.00;95945.75;10448776;28;2609;-70
2022/09/23 01:12:46;;;;;;;;;;;;;;;4.84;100.00;95937.06;10446368;28;2541;-69
2022/09/23 01:17:50;;;;;;;;;;;;;;;4.73;100.00;95936.03;10446926;28;2473;-70
2022/09/23 01:22:53;;;;;;;;;;;;;;;4.75;100.00;95928.59;10440426;28;2477;-69
2022/09/23 01:27:56;;;;;;;;;;;;;;;4.73;100.00;95941.34;10443317;28;2435;-71
2022/09/23 01:33:00;;;;;;;;;;;;;;;4.78;100.00;95927.34;10449393;28;2474;-69
2022/09/23 01:38:03;;;;;;;;;;;;;;;4.79;100.00;95918.31;10447953;28;2497;-70
2022/09/23 01:43:06;;;;;;;;;;;;;;;4.80;100.00;95919.91;10451384;28;2469;-70
2022/09/23 01:48:12;;;;;;;;;;;;;;;4.99;100.00;95920.59;10450023;28;2436;-69
2022/09/23 01:53:16;;;;;;;;;;;;;;;4.94;100.00;95909.81;10450404;28;2576;-76
2022/09/23 01:58:19;;;;;;;;;;;;;;;4.82;100.00;95902.66;10449980;28;2436;-69
2022/09/23 02:03:26;;;;;;;;;;;;;;;4.77;100.00;95902.56;10451031;28;2506;-77
2022/09/23 02:08:29;;;;;;;;;;;;;;;4.72;100.00;95904.31;10446830;28;2621;-73
2022/09/23 02:13:32;;;;;;;;;;;;;;;4.59;100.00;95905.34;10447889;28;2416;-70
2022/09/23 02:18:36;;;;;;;;;;;;;;;4.55;100.00;95904.19;10446402;28;2481;-70
2022/09/23 02:23:40;;;;;;;;;;;;;;;4.51;100.00;95911.00;10446160;28;2662;-70
2022/09/23 02:28:43;;;;;;;;;;;;;;;4.50;100.00;95912.06;10445860;28;2513;-70
2022/09/23 02:33:47;;;;;;;;;;;;;;;4.44;100.00;95910.31;10449000;28;2570;-70
2022/09/23 02:38:51;;;;;;;;;;;;;;;4.49;100.00;95910.44;10446398;28;2488;-70
2022/09/23 02:43:54;;;;;;;;;;;;;;;4.47;100.00;95899.22;10444902;28;2492;-71
2022/09/23 02:48:59;;;;;;;;;;;;;;;4.57;100.00;95894.91;10446282;28;2506;-70
2022/09/23 02:54:03;;;;;;;;;;;;;;;4.51;100.00;95889.72;10446041;28;2425;-70
2022/09/23 02:59:06;;;;;;;;;;;;;;;4.49;100.00;95897.13;10445171;28;2542;-70
2022/09/23 03:04:10;;;;;;;;;;;;;;;4.45;100.00;95887.97;10445411;28;2485;-70
2022/09/23 03:09:13;;;;;;;;;;;;;;;4.43;100.00;95892.72;10444903;28;2781;-70
2022/09/23 03:14:17;;;;;;;;;;;;;;;4.42;100.00;95885.78;10442675;28;2416;-70
2022/09/23 03:19:20;;;;;;;;;;;;;;;4.46;100.00;95882.44;10446560;28;2419;-69
2022/09/23 03:24:23;;;;;;;;;;;;;;;4.45;100.00;95875.47;10426773;28;2528;-70
2022/09/23 03:29:27;;;;;;;;;;;;;;;4.43;100.00;95874.91;10445738;28;2579;-72
2022/09/23 03:34:31;;;;;;;;;;;;;;;4.43;100.00;95872.25;10443660;28;2528;-71
2022/09/23 03:39:34;;;;;;;;;;;;;;;4.30;100.00;95889.25;10444060;28;2439;-69
2022/09/23 03:44:37;;;;;;;;;;;;;;;4.19;100.00;95884.75;10440522;28;2637;-70
2022/09/23 03:49:41;;;;;;;;;;;;;;;4.07;100.00;95883.91;10443020;28;2434;-70
2022/09/23 03:54:44;;;;;;;;;;;;;;;4.00;100.00;95876.03;10441119;28;2479;-69
2022/09/23 03:59:47;;;;;;;;;;;;;;;3.93;100.00;95877.19;10441043;28;2483;-69
2022/09/23 04:04:50;;;;;;;;;;;;;;;3.87;100.00;95867.47;10437783;28;2492;-69
2022/09/23 04:09:54;;;;;;;;;;;;;;;3.79;100.00;95863.31;10437146;28;2458;-69
2022/09/23 04:14:57;;;;;;;;;;;;;;;3.82;100.00;95864.69;10442013;28;2488;-69
2022/09/23 04:20:01;;;;;;;;;;;;;;;3.93;100.00;95866.56;10449857;28;2472;-69
2022/09/23 04:25:04;;;;;;;;;;;;;;;4.00;100.00;95869.91;10422773;28;2519;-69
2022/09/23 04:30:07;;;;;;;;;;;;;;;3.98;100.00;95862.16;10432362;28;2624;-70
2022/09/23 04:35:11;;;;;;;;;;;;;;;4.00;100.00;95868.06;10440593;28;2489;-68
2022/09/23 04:40:14;;;;;;;;;;;;;;;4.04;100.00;95869.22;10437279;28;2490;-69
2022/09/23 04:45:18;;;;;;;;;;;;;;;4.12;100.00;95862.75;10441309;28;2721;-69
2022/09/23 04:50:21;;;;;;;;;;;;;;;4.05;100.00;95873.50;10441098;28;2464;-68
2022/09/23 04:55:24;;;;;;;;;;;;;;;4.06;100.00;95872.47;10439329;28;2439;-69
2022/09/23 05:00:28;;;;;;;;;;;;;;;3.97;100.00;95868.53;10442941;28;2655;-70
2022/09/23 05:05:31;;;;;;;;;;;;;;;4.05;100.00;95880.69;10444327;28;2510;-70
2022/09/23 05:10:39;;;;;;;;;;;;;;;3.96;100.00;95874.91;10438928;28;2465;-69
2022/09/23 05:15:43;;;;;;;;;;;;;;;3.91;100.00;95880.09;10438180;28;2404;-70
2022/09/23 05:20:46;;;;;;;;;;;;;;;3.94;100.00;95878.81;10437236;28;2504;-71
2022/09/23 05:25:49;;;;;;;;;;;;;;;4.16;100.00;95882.56;10440090;28;2537;-70
2022/09/23 05:30:52;;;;;;;;;;;;;;;4.38;100.00;95871.31;10442819;28;2588;-71
2022/09/23 05:35:55;;;;;;;;;;;;;;;4.58;100.00;95871.75;10450167;28;2434;-71
2022/09/23 05:40:59;;;;;;;;;;;;;;;4.83;100.00;95874.97;10447190;28;2484;-70
2022/09/23 05:46:02;;;;;;;;;;;;;;;5.03;100.00;95871.13;10445596;28;2815;-72
2022/09/23 05:51:11;;;;;;;;;;;;;;;5.21;100.00;95878.13;10445226;28;2610;-76
2022/09/23 05:56:14;;;;;;;;;;;;;;;5.43;100.00;95863.09;10443366;28;2451;-76
2022/09/23 06:01:19;;;;;;;;;;;;;;;5.62;100.00;95861.03;10446329;28;2486;-71
2022/09/23 06:06:27;;;;;;;;;;;;;;;5.75;100.00;95860.72;10440628;28;2515;-70
2022/09/23 06:11:31;;;;;;;;;;;;;;;5.94;100.00;95851.47;10445325;28;2017;-68
2022/09/23 06:16:34;;;;;;;;;;;;;;;6.14;100.00;95845.66;10437884;28;2449;-68
2022/09/23 06:21:39;;;;;;;;;;;;;;;6.48;100.00;95846.41;10437887;28;2540;-67
2022/09/23 06:26:42;;;;;;;;;;;;;;;6.64;100.00;95849.31;10439510;28;2629;-69
2022/09/23 06:31:45;;;;;;;;;;;;;;;6.85;100.00;95856.53;10438767;28;2604;-68
2022/09/23 06:36:50;;;;;;;;;;;;;;;7.18;100.00;95846.75;10436841;28;2556;-74
2022/09/23 06:41:54;;;;;;;;;;;;;;;7.35;100.00;95838.66;10437774;28;2560;-68
2022/09/23 06:46:57;;;;;;;;;;;;;;;7.64;100.00;95852.63;10431045;28;2465;-71
2022/09/23 06:52:00;;;;;;;;;;;8.00;99.90;;;7.72;100.00;95852.97;10437912;28;2491;-68
2022/09/23 06:57:03;;;;;;;;;;;8.20;99.90;;;7.97;100.00;95841.69;10437500;28;2513;-68
2022/09/23 07:02:06;;;;;;;;;;;8.30;99.90;;;8.13;100.00;95850.63;10435515;28;2224;-68
2022/09/23 07:07:10;;;;;;;;;;;8.50;99.90;;;8.22;100.00;95854.47;10439970;28;2246;-69
2022/09/23 07:12:17;;;;;;;;;;;8.60;99.90;;;8.63;100.00;95852.88;10421672;28;2170;-67
2022/09/23 07:17:19;;;;;;;;;;;9.00;99.90;;;8.75;100.00;95843.84;10419582;28;2248;-68
2022/09/23 07:22:23;;;;;;;;;;;9.20;99.90;;;8.82;100.00;95842.53;10433291;28;2245;-68
2022/09/23 07:27:25;;;;;;;;;;;9.40;99.90;;;9.08;100.00;95848.00;10433368;28;2262;-67
2022/09/23 07:32:28;;;;;;;;;;;9.60;99.90;;;9.18;100.00;95840.00;10434201;28;2343;-67
2022/09/23 07:37:42;;;;;;;;;;;9.80;99.90;;;9.32;100.00;95851.06;10435545;28;2216;-70
2022/09/23 07:42:46;;;;;;;;;;;9.90;99.90;;;9.59;100.00;95846.28;10434770;28;2134;-69
2022/09/23 07:47:50;;;;;;;;;;;10.10;99.90;;;9.65;100.00;95853.28;10436514;28;2268;-69
2022/09/23 07:52:53;;;;;;;;;;;10.20;99.90;;;10.00;100.00;95846.38;10437144;28;2244;-69
2022/09/23 07:57:55;;;;;;;;;;;10.40;99.90;;;10.42;100.00;95858.72;10435888;28;2180;-68
2022/09/23 08:03:04;;;;;;;;;;;10.70;99.90;;;10.65;100.00;95847.41;10434750;28;2210;-69
2022/09/23 08:08:08;;;;;;;;;;;10.90;99.90;;;10.91;99.06;95845.47;10437436;28;2134;-71
2022/09/23 08:13:11;;;;;;;;;;;11.20;99.90;;;11.15;94.64;95853.75;10429981;28;2281;-69
2022/09/23 08:18:14;;;;;;;;;;;11.40;99.90;;;11.45;93.50;95851.97;10413023;28;2101;-71
2022/09/23 08:23:19;;;;;;;;;;;;;;;11.40;92.11;95857.41;10439085;28;2199;-66
2022/09/23 08:28:22;;;;;;;;;;;;;;;11.87;91.28;95856.91;10435808;28;2163;-68
2022/09/23 08:33:26;;;;;;;;;;;;;;;11.78;88.89;95848.59;10430928;28;2102;-67
2022/09/23 08:38:29;;;;;;;;;;;;;;;12.31;86.30;95846.06;10431959;28;2183;-66
2022/09/23 08:43:33;;;;;;;;;;;;;;;12.25;82.80;95851.78;10435103;28;2229;-66
2022/09/23 08:48:36;;;;;;;;;;;;;;;12.31;82.00;95848.75;10443277;28;2226;-70
2022/09/23 08:53:41;;;;;;;;;;;;;;;12.54;82.55;95849.09;10443580;28;2155;-70
2022/09/23 08:58:44;;;;;;;;;;;;;;;12.62;84.47;95851.97;10424765;28;2217;-72
2022/09/23 09:03:47;;;;;;;;;;;;;;;12.77;80.74;95851.03;10440668;28;2191;-69
2022/09/23 09:08:51;;;;;;;;;;;;;;;12.99;82.90;95840.53;10452890;28;2236;-70
2022/09/23 09:13:54;;;;;;;;;;;;;;;13.43;80.33;95844.13;10450623;28;2193;-70
2022/09/23 09:18:58;;;;;;;;;;;;;;;13.52;80.02;95834.25;10432237;28;2201;-70
2022/09/23 09:24:02;;;;;;;;;;;;;;;13.39;76.43;95835.78;10445125;28;2185;-70
2022/09/23 09:29:06;;;;;;;;;;;;;;;13.60;77.86;95825.50;10448137;28;2328;-71
2022/09/23 09:34:29;;;;;;;;;;;;;;;13.82;77.76;95819.53;10449816;28;2176;-74
2022/09/23 09:39:33;;;;;;;;;;;;;;;13.97;76.81;95810.38;10448598;28;2246;-76
2022/09/23 09:44:36;;;;;;;;;;;;;;;14.07;77.71;95810.25;10450646;28;2190;-76
2022/09/23 09:49:39;;;;;;;;;;;;;;;14.31;75.75;95799.28;10453720;28;2225;-69
2022/09/23 09:54:43;;;;;;;;;;;;;;;14.31;78.29;95810.09;10447951;28;2275;-71
2022/09/23 09:59:46;;;;;;;;;;;;;;;14.44;76.97;95798.53;10448244;28;2142;-72
2022/09/23 10:04:49;;;;;;;;;;;;;;;14.44;77.65;95787.72;10432412;28;2186;-69
2022/09/23 10:09:53;;;;;;;;;;;;;;;14.55;77.07;95789.16;10456220;28;2275;-70
2022/09/23 10:15:03;;;;;;;;;;;;;;;14.51;80.10;95788.16;10447858;28;2262;-71
2022/09/23 10:20:07;;;;;;;;;;;;;;;14.88;77.08;95783.66;10435661;28;2226;-71
2022/09/23 10:25:10;;;;;;;;;;;;;;;15.14;75.36;95776.69;10450437;28;2209;-69
2022/09/23 10:30:14;;;;;;;;;;;;;;;15.26;74.27;95767.22;10429176;28;2258;-70
2022/09/23 10:35:19;;;;;;;;;;;;;;;15.33;75.60;95773.00;10450393;28;2115;-70
2022/09/23 10:51:05;;;;;;;;;;;;;;;15.44;68.18;95762.78;10449673;28;2292;-74
2022/09/23 10:56:08;;;;;;;;;;;;;;;15.68;67.00;95758.72;10448523;28;2213;-74
2022/09/23 11:01:12;;;;;;;;;;;;;;;15.74;60.66;95745.06;10443723;28;2178;-71
2022/09/23 11:06:15;;;;;;;;;;;;;;;15.71;63.12;95748.38;10453485;28;2258;-70
2022/09/23 11:11:19;;;;;;;;;;;;;;;15.90;61.47;95746.28;10452630;28;2333;-71
2022/09/23 11:16:23;;;;;;;;;;;;;;;16.00;61.13;95739.81;10455693;28;2598;-68
2022/09/23 11:21:27;;;;;;;;;;;;;;;16.05;59.73;95742.41;10454329;28;2241;-70
2022/09/23 11:26:30;;;;;;;;;;;;;;;16.49;59.08;95739.66;10454520;28;2300;-71
2022/09/23 11:31:36;;;;;;;;;;;;;;;16.58;58.99;95722.59;10446714;28;2259;-70
2022/09/23 11:36:43;;;;;;;;;;;;;;;16.78;58.43;95721.28;10445850;28;2335;-73
2022/09/23 11:41:46;;;;;;;;;;;;;;;16.98;57.18;95715.25;10445900;28;2280;-73
2022/09/23 11:46:50;;;;;;;;;;;;;;;17.04;57.16;95708.56;10447167;28;2256;-71
2022/09/23 11:51:53;;;;;;;;;;;;;;;16.67;58.59;95705.25;10445512;28;2174;-72
2022/09/23 11:56:56;;;;;;;;;;;;;;;17.36;57.46;95696.47;10446222;28;2301;-70
2022/09/23 12:02:00;;;;;;;;;;;;;;;17.75;55.24;95703.72;10444866;28;2201;-71
2022/09/23 12:07:18;;;;;;;;;;;18.00;99.90;;;17.39;57.89;95693.13;10446943;28;2239;-70
2022/09/23 12:12:21;;;;;;;;;;;18.00;99.90;;;17.45;56.41;95685.63;10441829;28;2394;-71
2022/09/23 12:17:28;;;;;;;;;;;18.10;99.90;;;17.46;58.16;95676.34;10438341;28;2255;-68
2022/09/23 12:22:31;;;;;;;;;;;18.10;99.90;;;17.04;58.16;95675.97;10436534;28;2143;-69
2022/09/23 12:27:35;;;;;;;;;;;18.00;99.90;;;17.17;59.37;95679.69;10438105;28;2163;-69
2022/09/23 12:32:38;;;;;;;;;;;17.90;99.90;;;17.26;58.24;95673.16;10436016;28;2201;-69
2022/09/23 12:37:42;;;;;;;;;;;18.00;99.90;;;17.40;57.56;95661.31;10438225;28;2159;-70
2022/09/23 12:42:45;;;;;;;;;;;18.00;99.90;;;17.59;56.82;95658.28;10439305;28;2230;-69
2022/09/23 12:47:47;;;;;;;;;;;18.10;99.90;;;17.40;57.49;95647.75;10436829;28;2260;-69
2022/09/23 12:52:50;;;;;;;;;;;18.20;99.90;;;17.58;56.30;95651.25;10419435;28;2254;-70
2022/09/23 12:57:57;;;;;;;;;;;18.30;99.90;;;17.65;56.72;95644.22;10435733;28;2167;-66
2022/09/23 13:08:20;;;;;;;;;;;18.50;99.90;;;17.65;56.98;95638.78;10435540;28;2201;-65
2022/09/23 13:13:24;;;;;;;;;;;18.40;99.90;;;17.38;57.03;95625.53;10440312;28;2170;-65
2022/09/23 13:18:26;;;;;;;;;;;18.30;99.90;;;17.88;55.49;95617.66;10435818;28;2217;-67
2022/09/23 13:23:30;;;;;;;;;;;18.40;99.90;;;18.05;56.75;95605.94;10435330;28;2262;-74
2022/09/23 13:28:33;;;;;;;;;;;18.50;99.90;;;17.80;57.46;95600.22;10435254;28;2146;-74
2022/09/23 13:33:36;;;;;;;;;;;18.50;99.90;;;17.89;57.03;95585.84;10435039;28;2112;-68
2022/09/23 13:38:39;;;;;;;;;;;18.50;99.90;;;17.91;58.01;95589.81;10438625;28;2175;-66
2022/09/23 13:43:42;;;;;;;;;;;18.60;99.90;;;18.05;57.97;95578.72;10431978;28;2169;-67
2022/09/23 13:48:45;;;;;;;;;;;18.70;99.90;;;17.88;56.89;95578.78;10434685;28;2191;-68
2022/09/23 13:53:47;;;;;;;;;;;18.70;99.90;;;17.94;56.55;95583.75;10442241;28;2135;-69
2022/09/23 13:58:51;;;;;;;;;;;18.70;99.90;;;18.19;56.02;95584.75;10443525;28;2233;-69
2022/09/23 14:03:53;;;;;;;;;;;18.70;99.90;;;18.32;58.18;95578.31;10443667;28;2178;-68
2022/09/23 14:08:57;;;;;;;;;;;;;;;18.37;57.39;95569.13;10438703;28;2733;-68
2022/09/23 14:14:05;;;;;;;;;;;;;;;18.22;56.07;95569.72;10436124;28;2203;-69
2022/09/23 14:19:10;;;;;;;;;;;;;;;18.16;56.24;95569.09;10444362;28;2196;-67
2022/09/23 14:24:13;;;;;;;;;;;;;;;17.91;56.97;95559.91;10444365;28;2200;-68
2022/09/23 14:29:16;;;;;;;;;;;;;;;17.72;57.75;95552.13;10445559;28;2211;-68
2022/09/23 14:34:19;;;;;;;;;;;;;;;17.69;58.30;95549.25;10440306;28;2211;-68
2022/09/23 14:39:23;;;;;;;;;;;;;;;17.25;60.36;95541.16;10441981;28;2298;-67
2022/09/23 14:44:26;;;;;;;;;;;;;;;17.30;59.72;95542.91;10438106;28;2390;-67
2022/09/23 14:49:30;;;;;;;;;;;;;;;17.17;60.00;95541.94;10437820;28;2377;-68
2022/09/23 14:54:38;;;;;;;;;;;;;;;17.11;60.91;95537.81;10421700;28;2118;-67
2022/09/23 14:59:41;;;;;;;;;;;;;;;17.16;61.47;95532.22;10437478;28;2204;-65
2022/09/23 15:04:45;;;;;;;;;;;;;;;16.99;62.06;95532.25;10438231;28;2237;-70
2022/09/23 15:09:49;;;;;;;;;;;;;;;17.02;63.37;95531.59;10438651;28;2217;-68
2022/09/23 15:14:52;;;;;;;;;;;;;;;16.86;63.99;95527.75;10432151;28;2207;-68
2022/09/23 15:19:55;;;;;;;;;;;;;;;16.71;64.53;95518.97;10439557;28;2260;-68
2022/09/23 15:24:58;;;;;;;;;;;;;;;16.60;65.19;95522.28;10439808;28;2237;-69
2022/09/23 15:30:02;;;;;;;;;;;17.50;99.90;;;16.53;65.30;95508.38;10439393;28;2213;-69
2022/09/23 15:35:06;;;;;;;;;;;17.40;99.90;;;16.42;66.26;95507.91;10421703;28;2182;-68
2022/09/23 15:40:11;;;;;;;;;;;17.30;99.90;;;16.30;66.95;95511.22;10443325;28;2209;-68
2022/09/23 15:45:15;;;;;;;;;;;17.20;99.90;;;16.27;68.75;95511.06;10445237;28;2304;-68
2022/09/23 15:50:19;;;;;;;;;;;17.10;99.90;;;16.18;68.90;95508.34;10440868;28;2229;-68
2022/09/23 15:55:23;;;;;;;;;;;17.00;99.90;;;16.04;69.60;95505.75;10424735;28;2300;-67
2022/09/23 16:00:26;;;;;;;;;;;17.00;99.90;;;15.89;70.54;95506.16;10427886;28;2239;-67
2022/09/23 16:05:32;;;;;;;;;;;16.90;99.90;;;15.89;71.92;95506.16;10424516;28;2241;-67
2022/09/23 16:10:35;;;;;;;;;;;16.80;99.90;;;15.75;73.13;95514.41;10441269;28;2205;-67
2022/09/23 16:15:38;;;;;;;;;;;16.70;99.90;;;15.50;74.14;95505.00;10433611;28;2206;-67
2022/09/23 16:20:41;;;;;;;;;;;16.50;99.90;;;15.40;76.14;95508.78;10427876;28;2215;-68
2022/09/23 16:25:44;;;;;;;;;;;16.40;99.90;;;15.32;77.55;95516.84;10442595;28;2349;-66
2022/09/23 16:30:47;;;;;;;;;;;16.30;99.90;;;15.07;80.12;95519.06;10445018;28;2144;-66
2022/09/23 16:35:50;;;;;;;;;;;16.20;99.90;;;15.02;80.87;95516.50;10445258;28;2202;-65
2022/09/23 16:40:54;;;;;;;;;;;16.00;99.90;;;14.78;83.49;95521.41;10442717;28;2524;-65
2022/09/23 16:45:57;;;;;;;;;;;15.80;99.90;;;14.67;84.56;95526.25;10432565;28;2343;-65
2022/09/23 16:51:01;;;;;;;;;;;15.70;99.90;;;14.57;85.04;95524.59;10428423;28;2280;-65
2022/09/23 16:56:05;;;;;;;;;;;15.50;99.90;;;14.38;85.44;95526.59;10426997;28;2280;-66
2022/09/23 17:06:29;;;;;;;;;;;15.20;99.90;;;13.90;89.12;95524.34;10426749;28;2205;-69
2022/09/23 17:11:33;;;;;;;;;;;15.00;99.90;;;13.80;90.04;95508.31;10430371;28;2231;-67
2022/09/23 17:16:37;;;;;;;;;;;14.80;99.90;;;13.61;91.30;95521.09;10442132;28;2182;-67
2022/09/23 17:21:40;;;;;;;;;;;14.70;99.90;;;13.48;92.73;95528.88;10444154;28;2167;-65
2022/09/23 17:26:45;;;;;;;;;;;14.50;99.90;;;13.28;93.95;95534.66;10445538;28;2260;-67
2022/09/23 17:31:54;;;;;;;;;;;14.40;99.90;;;13.13;95.95;95548.38;10435315;28;2190;-67
2022/09/23 17:36:57;;;;;;;;;;;14.20;99.90;;;12.87;97.68;95547.97;10448727;28;2229;-68
2022/09/23 17:42:02;;;;;;;;;;;14.10;99.90;;;12.70;100.00;95551.19;10462623;28;2196;-68
2022/09/23 17:47:06;;;;;;;;;;;13.90;99.90;;;12.63;100.00;95550.75;10451400;28;2190;-67
2022/09/23 17:52:09;;;;;;;;;;;13.70;99.90;;;12.78;100.00;95552.44;10452214;28;2265;-66
2022/09/23 17:57:12;;;;;;;;;;;13.70;99.90;;;12.95;99.01;95552.72;10451608;28;2172;-67
2022/09/23 18:02:15;;;;;;;;;;;13.80;99.90;;;12.78;100.00;95550.53;10451023;28;2167;-66
2022/09/23 18:07:18;;;;;;;;;;;13.80;99.90;;;12.44;100.00;95548.84;10450539;28;2263;-66
2022/09/23 18:12:21;;;;;;;;;;;13.60;99.90;;;12.30;100.00;95542.59;10427989;28;2235;-67
2022/09/23 18:17:23;;;;;;;;;;;13.50;99.90;;;12.25;100.00;95544.53;10449685;28;2146;-67
2022/09/23 18:22:26;;;;;;;;;;;13.30;99.90;;;12.05;100.00;95551.00;10450016;28;2170;-65
2022/09/23 18:27:30;;;;;;;;;;;13.20;99.90;;;11.86;100.00;95548.25;10452976;28;2241;-65
2022/09/23 18:32:33;;;;;;;;;;;13.00;99.90;;;11.72;100.00;95547.31;10448914;28;2254;-66
2022/09/23 18:37:36;;;;;;;;;;;;;;;11.85;100.00;95552.84;10450647;28;2179;-66
2022/09/23 18:42:40;;;;;;;;;;;;;;;11.72;100.00;95545.41;10449596;28;2194;-65
2022/09/23 18:53:05;;;;;;;;;;;;;;;11.66;100.00;95557.31;10448923;28;2317;-66
2022/09/23 18:58:10;;;;;;;;;;;;;;;11.49;100.00;95557.75;10448590;28;2227;-67
2022/09/23 19:03:14;;;;;;;;;;;;;;;11.30;100.00;95554.97;10438174;28;2250;-66
2022/09/23 19:08:18;;;;;;;;;;;;;;;11.22;100.00;95555.59;10450588;28;2254;-65
2022/09/23 19:13:21;;;;;;;;;;;;;;;11.08;100.00;95560.81;10446266;28;2293;-67
2022/09/23 19:18:25;;;;;;;;;;;;;;;11.03;100.00;95560.06;10445947;28;2157;-68
2022/09/23 19:23:28;;;;;;;;;;;;;;;10.98;100.00;95563.56;10448202;28;2201;-67
2022/09/23 19:28:32;;;;;;;;;;;;;;;10.83;100.00;95552.94;10442026;28;2230;-67
2022/09/23 19:33:35;;;;;;;;;;;;;;;10.79;100.00;95546.50;10447022;28;2176;-68
2022/09/23 19:38:38;;;;;;;;;;;;;;;10.80;100.00;95546.22;10442401;28;2255;-68
2022/09/23 19:43:43;;;;;;;;;;;;;;;10.75;100.00;95545.44;10446210;28;2144;-69
2022/09/23 19:48:47;;;;;;;;;;;;;;;10.62;100.00;95541.50;10441290;28;2226;-69
2022/09/23 19:53:50;;;;;;;;;;;;;;;10.62;100.00;95549.56;10445160;28;2334;-67
2022/09/23 19:58:54;;;;;;;;;;;;;;;10.44;100.00;95539.50;10450360;28;2232;-67
2022/09/23 20:03:57;;;;;;;;;;;;;;;10.36;100.00;95532.81;10445004;28;2293;-66
2022/09/23 20:09:00;;;;;;;;;;;;;;;10.37;100.00;95538.97;10443884;28;2594;-66
2022/09/23 20:14:04;;;;;;;;;;;;;;;10.30;100.00;95528.53;10445030;28;2316;-66
2022/09/23 20:19:08;;;;;;;;;;;;;;;10.28;100.00;95536.88;10446230;28;2162;-66
2022/09/23 20:24:12;;;;;;;;;;;;;;;10.35;100.00;95528.53;10440740;28;2236;-68
2022/09/23 20:29:15;;;;;;;;;;;;;;;10.38;100.00;95530.66;10442908;28;2344;-65
2022/09/23 20:34:20;;;;;;;;;;;;;;;10.33;100.00;95525.31;10439426;28;2197;-71
2022/09/23 20:39:23;;;;;;;;;;;;;;;10.20;100.00;95524.00;10435597;28;2263;-73
2022/09/23 20:44:26;;;;;;;;;;;;;;;10.27;100.00;95526.44;10441002;28;2226;-72
2022/09/23 20:49:32;;;;;;;;;;;;;;;10.24;100.00;95518.91;10442676;28;2179;-77
2022/09/23 20:54:37;;;;;;;;;;;;;;;10.28;100.00;95514.59;10452942;28;2143;-75
2022/09/23 20:59:40;;;;;;;;;;;;;;;10.29;100.00;95517.00;10443542;28;2267;-75
2022/09/23 21:04:44;;;;;;;;;;;;;;;10.16;100.00;95520.25;10435574;28;2198;-73
2022/09/23 21:09:47;;;;;;;;;;;11.30;99.90;;;10.36;100.00;95514.00;10443627;28;2213;-75
2022/09/23 21:14:50;;;;;;;;;;;11.30;99.90;;;10.43;100.00;95511.00;10447126;28;2185;-74
2022/09/23 21:19:53;;;;;;;;;;;11.40;99.90;;;10.71;100.00;95496.03;10449945;28;2268;-75
2022/09/23 21:24:56;;;;;;;;;;;11.60;99.90;;;10.77;100.00;95495.72;10450340;28;2702;-76
2022/09/23 21:30:19;;;;;;;;;;;11.80;99.90;;;10.74;100.00;95495.47;10453676;28;2147;-76
2022/09/23 21:35:22;;;;;;;;;;;11.70;99.90;;;10.74;100.00;95496.25;10445801;28;2222;-76
2022/09/23 21:45:47;;;;;;;;;;;;;;;10.61;100.00;95491.53;10447813;28;2229;-71
2022/09/23 21:50:51;;;;;;;;;;;;;;;10.55;100.00;95498.03;10451007;28;2201;-72
2022/09/23 21:55:54;;;;;;;;;;;;;;;10.43;100.00;95493.03;10455921;28;2163;-73
2022/09/23 22:00:57;;;;;;;;;;;;;;;10.32;100.00;95494.16;10448109;28;2511;-72
2022/09/23 22:06:04;;;;;;;;;;;;;;;10.22;100.00;95500.34;10446264;28;2264;-73
2022/09/23 22:11:07;;;;;;;;;;;;;;;10.17;100.00;95488.84;10446158;28;2148;-74
2022/09/23 22:16:15;;;;;;;;;;;;;;;10.22;100.00;95489.59;10445598;28;2250;-73
2022/09/23 22:21:19;;;;;;;;;;;;;;;10.25;100.00;95483.72;10446852;28;2210;-75
2022/09/23 22:26:23;;;;;;;;;;;;;;;10.29;100.00;95483.97;10451565;28;2229;-73
2022/09/23 22:36:47;;;;;;;;;;;;;;;10.36;100.00;95480.97;10451038;28;2257;-76
2022/09/23 22:41:50;;;;;;;;;;;;;;;10.33;100.00;95478.84;10450667;28;2159;-75
2022/09/23 22:46:53;;;;;;;;;;;;;;;10.27;100.00;95468.13;10448650;28;2271;-75
2022/09/23 22:51:57;;;;;;;;;;;;;;;10.22;100.00;95478.88;10446230;28;2186;-73
2022/09/23 22:57:01;;;;;;;;;;;;;;;10.25;100.00;95477.56;10449848;28;2258;-73
2022/09/23 23:02:06;;;;;;;;;;;;;;;10.27;100.00;95460.06;10444683;28;2166;-76
2022/09/23 23:07:20;;;;;;;;;;;;;;;10.31;100.00;95463.00;10444346;28;2270;-72
2022/09/23 23:12:23;;;;;;;;;;;;;;;10.32;100.00;95448.50;10445267;28;2351;-73
2022/09/23 23:17:26;;;;;;;;;;;;;;;10.27;100.00;95433.19;10431323;28;2217;-73
2022/09/23 23:22:30;;;;;;;;;;;;;;;10.33;100.00;95435.84;10447029;28;2221;-72
2022/09/23 23:27:34;;;;;;;;;;;;;;;10.29;100.00;95436.41;10444141;28;2280;-73
2022/09/23 23:32:37;;;;;;;;;;;;;;;10.29;100.00;95441.78;10440844;28;2288;-73
2022/09/23 23:37:40;;;;;;;;;;;;;;;10.35;100.00;95439.06;10442755;28;2272;-75
2022/09/23 23:42:43;;;;;;;;;;;;;;;10.29;100.00;95436.41;10443672;28;2201;-73
2022/09/23 23:47:47;;;;;;;;;;;;;;;10.21;100.00;95426.22;10441030;28;2237;-72
2022/09/23 23:52:50;;;;;;;;;;;;;;;10.11;100.00;95434.34;10444327;28;2288;-72
2022/09/23 23:58:02;;;;;;;;;;;;;;;10.03;100.00;95429.56;10555944;27;2326;-72
